sensor_id;sensor_type;location;lat;lon;timestamp;temperature;humidity
22544;DHT22;11438;52.044;8.716;2023-06-14T00:00:10;22.30;52.50
22544;DHT22;11438;52.044;8.716;2023-06-14T00:02:40;22.20;51.60
22544;DHT22;11438;52.044;8.716;2023-06-14T00:05:07;22.20;51.80
22544;DHT22;11438;52.044;8.716;2023-06-14T00:07:37;22.10;51.80
22544;DHT22;11438;52.044;8.716;2023-06-14T00:10:13;22.10;52.10
22544;DHT22;11438;52.044;8.716;2023-06-14T00:12:39;22.10;51.70
22544;DHT22;11438;52.044;8.716;2023-06-14T00:15:07;22.00;51.90
22544;DHT22;11438;52.044;8.716;2023-06-14T00:17:35;22.00;51.90
22544;DHT22;11438;52.044;8.716;2023-06-14T00:20:02;21.90;51.90
22544;DHT22;11438;52.044;8.716;2023-06-14T00:22:30;21.90;52.10
22544;DHT22;11438;52.044;8.716;2023-06-14T00:24:56;21.90;52.30
22544;DHT22;11438;52.044;8.716;2023-06-14T00:27:21;21.90;52.10
22544;DHT22;11438;52.044;8.716;2023-06-14T00:29:47;21.80;52.30
22544;DHT22;11438;52.044;8.716;2023-06-14T00:32:12;21.80;52.40
22544;DHT22;11438;52.044;8.716;2023-06-14T00:34:38;21.70;52.50
22544;DHT22;11438;52.044;8.716;2023-06-14T00:37:03;21.70;52.60
22544;DHT22;11438;52.044;8.716;2023-06-14T00:39:29;21.70;52.70
22544;DHT22;11438;52.044;8.716;2023-06-14T00:41:55;21.70;52.80
22544;DHT22;11438;52.044;8.716;2023-06-14T00:44:20;21.60;53.10
22544;DHT22;11438;52.044;8.716;2023-06-14T00:46:47;21.60;53.00
22544;DHT22;11438;52.044;8.716;2023-06-14T00:49:14;21.60;53.20
22544;DHT22;11438;52.044;8.716;2023-06-14T00:51:41;21.50;53.30
22544;DHT22;11438;52.044;8.716;2023-06-14T00:54:07;21.50;53.50
22544;DHT22;11438;52.044;8.716;2023-06-14T00:56:36;21.50;53.80
22544;DHT22;11438;52.044;8.716;2023-06-14T00:59:02;21.40;53.80
22544;DHT22;11438;52.044;8.716;2023-06-14T01:01:28;21.40;53.80
22544;DHT22;11438;52.044;8.716;2023-06-14T01:03:54;21.40;53.90
22544;DHT22;11438;52.044;8.716;2023-06-14T01:06:41;21.40;53.90
22544;DHT22;11438;52.044;8.716;2023-06-14T01:09:15;21.30;54.10
22544;DHT22;11438;52.044;8.716;2023-06-14T01:14:25;21.20;54.30
22544;DHT22;11438;52.044;8.716;2023-06-14T01:16:53;21.20;54.30
22544;DHT22;11438;52.044;8.716;2023-06-14T01:19:18;21.20;54.50
22544;DHT22;11438;52.044;8.716;2023-06-14T01:21:48;21.10;54.50
22544;DHT22;11438;52.044;8.716;2023-06-14T01:24:16;21.10;54.40
22544;DHT22;11438;52.044;8.716;2023-06-14T01:26:45;21.10;54.60
22544;DHT22;11438;52.044;8.716;2023-06-14T01:29:16;21.00;54.80
22544;DHT22;11438;52.044;8.716;2023-06-14T01:31:43;21.00;55.00
22544;DHT22;11438;52.044;8.716;2023-06-14T01:34:09;20.90;55.10
22544;DHT22;11438;52.044;8.716;2023-06-14T01:36:36;20.90;55.10
22544;DHT22;11438;52.044;8.716;2023-06-14T01:39:04;20.90;55.30
22544;DHT22;11438;52.044;8.716;2023-06-14T01:41:30;20.80;55.30
22544;DHT22;11438;52.044;8.716;2023-06-14T01:43:57;20.80;55.40
22544;DHT22;11438;52.044;8.716;2023-06-14T01:46:23;20.70;55.50
22544;DHT22;11438;52.044;8.716;2023-06-14T01:48:49;20.70;55.60
22544;DHT22;11438;52.044;8.716;2023-06-14T01:51:15;20.60;55.60
22544;DHT22;11438;52.044;8.716;2023-06-14T01:53:40;20.60;55.70
22544;DHT22;11438;52.044;8.716;2023-06-14T01:56:06;20.50;55.70
22544;DHT22;11438;52.044;8.716;2023-06-14T01:58:32;20.50;55.90
22544;DHT22;11438;52.044;8.716;2023-06-14T02:00:58;20.40;56.00
22544;DHT22;11438;52.044;8.716;2023-06-14T02:03:26;20.40;56.30
22544;DHT22;11438;52.044;8.716;2023-06-14T02:05:51;20.30;56.20
22544;DHT22;11438;52.044;8.716;2023-06-14T02:08:17;20.30;56.40
22544;DHT22;11438;52.044;8.716;2023-06-14T02:10:42;20.30;56.40
22544;DHT22;11438;52.044;8.716;2023-06-14T02:13:08;20.20;56.50
22544;DHT22;11438;52.044;8.716;2023-06-14T02:15:34;20.10;56.70
22544;DHT22;11438;52.044;8.716;2023-06-14T02:18:04;20.10;56.70
22544;DHT22;11438;52.044;8.716;2023-06-14T02:20:29;20.00;57.00
22544;DHT22;11438;52.044;8.716;2023-06-14T02:22:55;20.00;57.10
22544;DHT22;11438;52.044;8.716;2023-06-14T02:25:21;19.90;57.10
22544;DHT22;11438;52.044;8.716;2023-06-14T02:27:46;19.80;57.30
22544;DHT22;11438;52.044;8.716;2023-06-14T02:30:12;19.80;57.20
22544;DHT22;11438;52.044;8.716;2023-06-14T02:32:38;19.70;57.30
22544;DHT22;11438;52.044;8.716;2023-06-14T02:35:03;19.70;57.50
22544;DHT22;11438;52.044;8.716;2023-06-14T02:37:29;19.60;57.70
22544;DHT22;11438;52.044;8.716;2023-06-14T02:39:55;19.60;57.90
22544;DHT22;11438;52.044;8.716;2023-06-14T02:42:21;19.50;58.10
22544;DHT22;11438;52.044;8.716;2023-06-14T02:44:46;19.50;58.20
22544;DHT22;11438;52.044;8.716;2023-06-14T02:47:19;19.40;58.50
22544;DHT22;11438;52.044;8.716;2023-06-14T02:49:44;19.40;58.70
22544;DHT22;11438;52.044;8.716;2023-06-14T02:52:13;19.40;58.70
22544;DHT22;11438;52.044;8.716;2023-06-14T02:54:39;19.30;58.80
22544;DHT22;11438;52.044;8.716;2023-06-14T02:57:05;19.20;58.80
22544;DHT22;11438;52.044;8.716;2023-06-14T02:59:33;19.20;59.00
22544;DHT22;11438;52.044;8.716;2023-06-14T03:01:58;19.20;59.00
22544;DHT22;11438;52.044;8.716;2023-06-14T03:04:24;19.10;59.30
22544;DHT22;11438;52.044;8.716;2023-06-14T03:06:51;19.00;59.30
22544;DHT22;11438;52.044;8.716;2023-06-14T03:09:17;19.00;59.40
22544;DHT22;11438;52.044;8.716;2023-06-14T03:11:42;19.00;59.70
22544;DHT22;11438;52.044;8.716;2023-06-14T03:14:08;18.90;59.70
22544;DHT22;11438;52.044;8.716;2023-06-14T03:16:34;18.90;59.70
22544;DHT22;11438;52.044;8.716;2023-06-14T03:18:59;18.80;60.00
22544;DHT22;11438;52.044;8.716;2023-06-14T03:21:25;18.80;60.00
22544;DHT22;11438;52.044;8.716;2023-06-14T03:23:51;18.70;59.90
22544;DHT22;11438;52.044;8.716;2023-06-14T03:26:18;18.70;60.30
22544;DHT22;11438;52.044;8.716;2023-06-14T03:28:47;18.70;60.40
22544;DHT22;11438;52.044;8.716;2023-06-14T03:31:14;18.60;61.00
22544;DHT22;11438;52.044;8.716;2023-06-14T03:33:41;18.60;60.60
22544;DHT22;11438;52.044;8.716;2023-06-14T03:36:07;18.60;60.70
22544;DHT22;11438;52.044;8.716;2023-06-14T03:38:33;18.60;60.70
22544;DHT22;11438;52.044;8.716;2023-06-14T03:40:59;18.50;60.90
22544;DHT22;11438;52.044;8.716;2023-06-14T03:43:25;18.50;61.20
22544;DHT22;11438;52.044;8.716;2023-06-14T03:45:50;18.50;61.20
22544;DHT22;11438;52.044;8.716;2023-06-14T03:48:16;18.50;61.20
22544;DHT22;11438;52.044;8.716;2023-06-14T03:50:41;18.40;61.30
22544;DHT22;11438;52.044;8.716;2023-06-14T03:53:08;18.40;61.20
22544;DHT22;11438;52.044;8.716;2023-06-14T03:55:34;18.40;61.70
22544;DHT22;11438;52.044;8.716;2023-06-14T03:58:00;18.40;61.90
22544;DHT22;11438;52.044;8.716;2023-06-14T04:00:26;18.40;61.80
22544;DHT22;11438;52.044;8.716;2023-06-14T04:02:52;18.40;62.10
22544;DHT22;11438;52.044;8.716;2023-06-14T04:05:18;18.40;62.20
22544;DHT22;11438;52.044;8.716;2023-06-14T04:07:45;18.40;62.40
22544;DHT22;11438;52.044;8.716;2023-06-14T04:10:12;18.40;62.70
22544;DHT22;11438;52.044;8.716;2023-06-14T04:12:38;18.40;62.70
22544;DHT22;11438;52.044;8.716;2023-06-14T04:15:04;18.40;62.90
22544;DHT22;11438;52.044;8.716;2023-06-14T04:17:34;18.40;62.90
22544;DHT22;11438;52.044;8.716;2023-06-14T04:20:00;18.40;62.90
22544;DHT22;11438;52.044;8.716;2023-06-14T04:22:26;18.40;63.20
22544;DHT22;11438;52.044;8.716;2023-06-14T04:24:55;18.40;63.30
22544;DHT22;11438;52.044;8.716;2023-06-14T04:27:25;18.40;63.40
22544;DHT22;11438;52.044;8.716;2023-06-14T04:29:52;18.40;63.40
22544;DHT22;11438;52.044;8.716;2023-06-14T04:32:25;18.40;63.60
22544;DHT22;11438;52.044;8.716;2023-06-14T04:34:53;18.50;63.90
22544;DHT22;11438;52.044;8.716;2023-06-14T04:37:19;18.50;64.30
22544;DHT22;11438;52.044;8.716;2023-06-14T04:39:46;18.50;64.90
22544;DHT22;11438;52.044;8.716;2023-06-14T04:42:12;18.50;64.60
22544;DHT22;11438;52.044;8.716;2023-06-14T04:44:42;18.50;65.00
22544;DHT22;11438;52.044;8.716;2023-06-14T04:47:09;18.60;65.10
22544;DHT22;11438;52.044;8.716;2023-06-14T04:49:34;18.60;65.00
22544;DHT22;11438;52.044;8.716;2023-06-14T04:52:00;18.60;65.30
22544;DHT22;11438;52.044;8.716;2023-06-14T04:54:26;18.70;65.50
22544;DHT22;11438;52.044;8.716;2023-06-14T04:56:52;18.70;65.60
22544;DHT22;11438;52.044;8.716;2023-06-14T04:59:21;18.70;65.40
22544;DHT22;11438;52.044;8.716;2023-06-14T05:01:50;18.80;65.50
22544;DHT22;11438;52.044;8.716;2023-06-14T05:04:17;18.80;65.60
22544;DHT22;11438;52.044;8.716;2023-06-14T05:06:43;18.90;65.60
22544;DHT22;11438;52.044;8.716;2023-06-14T05:09:10;18.90;65.90
22544;DHT22;11438;52.044;8.716;2023-06-14T05:11:36;18.90;66.10
22544;DHT22;11438;52.044;8.716;2023-06-14T05:14:01;19.00;66.30
22544;DHT22;11438;52.044;8.716;2023-06-14T05:16:27;19.00;66.10
22544;DHT22;11438;52.044;8.716;2023-06-14T05:18:54;19.10;66.20
22544;DHT22;11438;52.044;8.716;2023-06-14T05:21:20;19.10;66.20
22544;DHT22;11438;52.044;8.716;2023-06-14T05:23:46;19.10;66.10
22544;DHT22;11438;52.044;8.716;2023-06-14T05:26:11;19.20;66.50
22544;DHT22;11438;52.044;8.716;2023-06-14T05:28:37;19.20;66.80
22544;DHT22;11438;52.044;8.716;2023-06-14T05:31:02;19.30;66.70
22544;DHT22;11438;52.044;8.716;2023-06-14T05:33:28;19.30;66.80
22544;DHT22;11438;52.044;8.716;2023-06-14T05:35:54;19.30;67.30
22544;DHT22;11438;52.044;8.716;2023-06-14T05:38:20;19.40;66.90
22544;DHT22;11438;52.044;8.716;2023-06-14T05:40:46;19.40;66.80
22544;DHT22;11438;52.044;8.716;2023-06-14T05:43:12;19.50;66.60
22544;DHT22;11438;52.044;8.716;2023-06-14T05:45:37;19.60;66.90
22544;DHT22;11438;52.044;8.716;2023-06-14T05:48:03;19.60;67.20
22544;DHT22;11438;52.044;8.716;2023-06-14T05:50:28;19.60;66.90
22544;DHT22;11438;52.044;8.716;2023-06-14T05:52:54;19.70;67.50
22544;DHT22;11438;52.044;8.716;2023-06-14T05:55:20;19.70;67.00
22544;DHT22;11438;52.044;8.716;2023-06-14T05:57:45;19.80;67.00
22544;DHT22;11438;52.044;8.716;2023-06-14T06:00:11;19.80;66.80
22544;DHT22;11438;52.044;8.716;2023-06-14T06:02:40;19.90;67.10
22544;DHT22;11438;52.044;8.716;2023-06-14T06:05:06;19.90;67.10
22544;DHT22;11438;52.044;8.716;2023-06-14T06:07:32;20.00;67.20
22544;DHT22;11438;52.044;8.716;2023-06-14T06:09:57;20.00;67.00
22544;DHT22;11438;52.044;8.716;2023-06-14T06:12:23;20.00;66.80
22544;DHT22;11438;52.044;8.716;2023-06-14T06:14:48;20.10;66.50
22544;DHT22;11438;52.044;8.716;2023-06-14T06:17:14;20.10;67.10
22544;DHT22;11438;52.044;8.716;2023-06-14T06:19:39;20.20;66.80
22544;DHT22;11438;52.044;8.716;2023-06-14T06:22:05;20.30;66.00
22544;DHT22;11438;52.044;8.716;2023-06-14T06:24:31;20.30;66.10
22544;DHT22;11438;52.044;8.716;2023-06-14T06:26:57;20.30;65.60
22544;DHT22;11438;52.044;8.716;2023-06-14T06:29:23;20.40;65.40
22544;DHT22;11438;52.044;8.716;2023-06-14T06:31:48;20.40;65.40
22544;DHT22;11438;52.044;8.716;2023-06-14T06:34:13;20.40;65.80
22544;DHT22;11438;52.044;8.716;2023-06-14T06:36:39;20.50;65.30
22544;DHT22;11438;52.044;8.716;2023-06-14T06:39:04;20.50;65.30
22544;DHT22;11438;52.044;8.716;2023-06-14T06:41:38;20.50;65.40
22544;DHT22;11438;52.044;8.716;2023-06-14T06:44:05;20.60;65.10
22544;DHT22;11438;52.044;8.716;2023-06-14T06:46:32;20.60;65.30
22544;DHT22;11438;52.044;8.716;2023-06-14T06:48:58;20.60;65.10
22544;DHT22;11438;52.044;8.716;2023-06-14T06:51:24;20.70;65.10
22544;DHT22;11438;52.044;8.716;2023-06-14T06:53:53;20.70;65.00
22544;DHT22;11438;52.044;8.716;2023-06-14T06:56:20;20.80;65.40
22544;DHT22;11438;52.044;8.716;2023-06-14T06:58:51;20.80;65.20
22544;DHT22;11438;52.044;8.716;2023-06-14T07:01:17;20.80;64.80
22544;DHT22;11438;52.044;8.716;2023-06-14T07:03:43;20.80;65.10
22544;DHT22;11438;52.044;8.716;2023-06-14T07:06:08;20.90;64.90
22544;DHT22;11438;52.044;8.716;2023-06-14T07:08:34;20.90;65.10
22544;DHT22;11438;52.044;8.716;2023-06-14T07:10:59;20.90;65.00
22544;DHT22;11438;52.044;8.716;2023-06-14T07:13:25;21.00;65.20
22544;DHT22;11438;52.044;8.716;2023-06-14T07:15:53;21.00;64.60
22544;DHT22;11438;52.044;8.716;2023-06-14T07:18:19;21.10;64.90
22544;DHT22;11438;52.044;8.716;2023-06-14T07:20:45;21.10;65.00
22544;DHT22;11438;52.044;8.716;2023-06-14T07:23:10;21.10;64.40
22544;DHT22;11438;52.044;8.716;2023-06-14T07:25:36;21.20;64.70
22544;DHT22;11438;52.044;8.716;2023-06-14T07:28:01;21.20;63.60
22544;DHT22;11438;52.044;8.716;2023-06-14T07:30:27;21.20;63.30
22544;DHT22;11438;52.044;8.716;2023-06-14T07:32:53;21.20;63.20
22544;DHT22;11438;52.044;8.716;2023-06-14T07:35:19;21.30;62.70
22544;DHT22;11438;52.044;8.716;2023-06-14T07:37:45;21.30;62.60
22544;DHT22;11438;52.044;8.716;2023-06-14T07:40:12;21.30;64.60
22544;DHT22;11438;52.044;8.716;2023-06-14T07:42:38;21.40;63.00
22544;DHT22;11438;52.044;8.716;2023-06-14T07:45:04;21.40;62.80
22544;DHT22;11438;52.044;8.716;2023-06-14T07:47:30;21.40;63.60
22544;DHT22;11438;52.044;8.716;2023-06-14T07:49:56;21.50;62.40
22544;DHT22;11438;52.044;8.716;2023-06-14T07:52:21;21.50;63.00
22544;DHT22;11438;52.044;8.716;2023-06-14T07:54:47;21.50;63.20
22544;DHT22;11438;52.044;8.716;2023-06-14T07:57:13;21.50;62.60
22544;DHT22;11438;52.044;8.716;2023-06-14T07:59:38;21.60;62.50
22544;DHT22;11438;52.044;8.716;2023-06-14T08:02:04;21.60;62.70
22544;DHT22;11438;52.044;8.716;2023-06-14T08:04:30;21.60;62.50
22544;DHT22;11438;52.044;8.716;2023-06-14T08:06:56;21.70;62.20
22544;DHT22;11438;52.044;8.716;2023-06-14T08:09:22;21.70;62.20
22544;DHT22;11438;52.044;8.716;2023-06-14T08:11:48;21.70;62.40
22544;DHT22;11438;52.044;8.716;2023-06-14T08:14:13;21.70;62.10
22544;DHT22;11438;52.044;8.716;2023-06-14T08:16:39;21.80;62.70
22544;DHT22;11438;52.044;8.716;2023-06-14T08:19:04;21.80;62.80
22544;DHT22;11438;52.044;8.716;2023-06-14T08:21:30;21.80;62.80
22544;DHT22;11438;52.044;8.716;2023-06-14T08:27:20;21.90;62.90
22544;DHT22;11438;52.044;8.716;2023-06-14T08:29:46;22.00;63.20
22544;DHT22;11438;52.044;8.716;2023-06-14T08:32:12;22.10;62.80
22544;DHT22;11438;52.044;8.716;2023-06-14T08:34:37;22.00;62.30
22544;DHT22;11438;52.044;8.716;2023-06-14T08:37:03;22.10;62.80
22544;DHT22;11438;52.044;8.716;2023-06-14T08:39:28;22.20;62.50
22544;DHT22;11438;52.044;8.716;2023-06-14T08:41:54;22.20;62.90
22544;DHT22;11438;52.044;8.716;2023-06-14T08:44:22;22.30;62.50
22544;DHT22;11438;52.044;8.716;2023-06-14T08:46:48;22.30;61.70
22544;DHT22;11438;52.044;8.716;2023-06-14T08:49:16;22.30;61.80
22544;DHT22;11438;52.044;8.716;2023-06-14T08:51:43;22.40;61.80
22544;DHT22;11438;52.044;8.716;2023-06-14T08:54:10;22.50;62.00
22544;DHT22;11438;52.044;8.716;2023-06-14T08:56:38;22.40;61.40
22544;DHT22;11438;52.044;8.716;2023-06-14T08:59:04;22.50;61.40
22544;DHT22;11438;52.044;8.716;2023-06-14T09:01:33;22.60;61.50
22544;DHT22;11438;52.044;8.716;2023-06-14T09:04:00;22.60;62.00
22544;DHT22;11438;52.044;8.716;2023-06-14T09:06:25;22.60;62.00
22544;DHT22;11438;52.044;8.716;2023-06-14T09:08:54;22.60;62.10
22544;DHT22;11438;52.044;8.716;2023-06-14T09:11:19;22.70;61.30
22544;DHT22;11438;52.044;8.716;2023-06-14T09:13:46;22.70;61.20
22544;DHT22;11438;52.044;8.716;2023-06-14T09:16:12;22.80;61.80
22544;DHT22;11438;52.044;8.716;2023-06-14T09:18:39;22.80;61.90
22544;DHT22;11438;52.044;8.716;2023-06-14T09:21:07;22.80;61.80
22544;DHT22;11438;52.044;8.716;2023-06-14T09:23:37;22.90;61.10
22544;DHT22;11438;52.044;8.716;2023-06-14T09:26:15;22.90;61.10
22544;DHT22;11438;52.044;8.716;2023-06-14T09:28:48;23.00;60.50
22544;DHT22;11438;52.044;8.716;2023-06-14T09:31:15;23.00;60.50
22544;DHT22;11438;52.044;8.716;2023-06-14T09:33:45;23.10;60.80
22544;DHT22;11438;52.044;8.716;2023-06-14T09:36:16;23.10;60.60
22544;DHT22;11438;52.044;8.716;2023-06-14T09:38:55;23.10;60.30
22544;DHT22;11438;52.044;8.716;2023-06-14T09:41:36;23.20;60.00
22544;DHT22;11438;52.044;8.716;2023-06-14T09:44:04;23.20;59.60
22544;DHT22;11438;52.044;8.716;2023-06-14T09:46:31;23.30;59.80
22544;DHT22;11438;52.044;8.716;2023-06-14T09:48:57;23.40;61.90
22544;DHT22;11438;52.044;8.716;2023-06-14T09:51:24;23.40;61.00
22544;DHT22;11438;52.044;8.716;2023-06-14T09:53:50;23.40;60.00
22544;DHT22;11438;52.044;8.716;2023-06-14T09:56:23;23.50;60.70
22544;DHT22;11438;52.044;8.716;2023-06-14T09:58:55;23.60;59.90
22544;DHT22;11438;52.044;8.716;2023-06-14T10:01:22;23.60;59.50
22544;DHT22;11438;52.044;8.716;2023-06-14T10:03:50;23.70;59.80
22544;DHT22;11438;52.044;8.716;2023-06-14T10:06:18;23.70;60.10
22544;DHT22;11438;52.044;8.716;2023-06-14T10:08:46;23.70;60.20
22544;DHT22;11438;52.044;8.716;2023-06-14T10:11:13;23.80;59.00
22544;DHT22;11438;52.044;8.716;2023-06-14T10:13:39;23.80;59.00
22544;DHT22;11438;52.044;8.716;2023-06-14T10:16:15;23.90;59.30
22544;DHT22;11438;52.044;8.716;2023-06-14T10:21:43;23.90;59.00
22544;DHT22;11438;52.044;8.716;2023-06-14T10:24:13;24.00;57.70
22544;DHT22;11438;52.044;8.716;2023-06-14T10:26:56;24.00;57.40
22544;DHT22;11438;52.044;8.716;2023-06-14T10:29:22;24.10;57.90
22544;DHT22;11438;52.044;8.716;2023-06-14T10:31:49;24.10;57.20
22544;DHT22;11438;52.044;8.716;2023-06-14T10:34:29;24.10;57.00
22544;DHT22;11438;52.044;8.716;2023-06-14T10:37:03;24.10;57.60
22544;DHT22;11438;52.044;8.716;2023-06-14T10:39:30;24.20;57.20
22544;DHT22;11438;52.044;8.716;2023-06-14T10:41:56;24.20;56.80
22544;DHT22;11438;52.044;8.716;2023-06-14T10:46:49;24.30;56.60
22544;DHT22;11438;52.044;8.716;2023-06-14T10:49:18;24.30;56.70
22544;DHT22;11438;52.044;8.716;2023-06-14T10:51:46;24.30;56.60
22544;DHT22;11438;52.044;8.716;2023-06-14T10:54:16;24.40;56.40
22544;DHT22;11438;52.044;8.716;2023-06-14T10:56:50;24.40;56.60
22544;DHT22;11438;52.044;8.716;2023-06-14T10:59:17;24.40;56.00
22544;DHT22;11438;52.044;8.716;2023-06-14T11:04:52;24.50;56.00
22544;DHT22;11438;52.044;8.716;2023-06-14T11:10:38;24.60;56.30
22544;DHT22;11438;52.044;8.716;2023-06-14T11:13:05;24.60;55.90
22544;DHT22;11438;52.044;8.716;2023-06-14T11:15:32;24.60;55.50
22544;DHT22;11438;52.044;8.716;2023-06-14T11:18:00;24.60;55.80
22544;DHT22;11438;52.044;8.716;2023-06-14T11:20:26;24.70;55.90
22544;DHT22;11438;52.044;8.716;2023-06-14T11:22:52;24.70;56.10
22544;DHT22;11438;52.044;8.716;2023-06-14T11:25:18;24.80;55.00
22544;DHT22;11438;52.044;8.716;2023-06-14T11:27:45;24.80;56.30
22544;DHT22;11438;52.044;8.716;2023-06-14T11:30:11;24.80;56.00
22544;DHT22;11438;52.044;8.716;2023-06-14T11:32:37;24.90;56.00
22544;DHT22;11438;52.044;8.716;2023-06-14T11:35:04;24.90;56.20
22544;DHT22;11438;52.044;8.716;2023-06-14T11:37:33;24.90;55.60
22544;DHT22;11438;52.044;8.716;2023-06-14T11:40:02;25.00;56.00
22544;DHT22;11438;52.044;8.716;2023-06-14T11:42:33;25.00;55.80
22544;DHT22;11438;52.044;8.716;2023-06-14T11:44:59;25.10;56.50
22544;DHT22;11438;52.044;8.716;2023-06-14T11:47:30;25.10;56.10
22544;DHT22;11438;52.044;8.716;2023-06-14T11:49:58;25.20;56.50
22544;DHT22;11438;52.044;8.716;2023-06-14T11:52:24;25.20;55.90
22544;DHT22;11438;52.044;8.716;2023-06-14T11:54:49;25.30;56.00
22544;DHT22;11438;52.044;8.716;2023-06-14T11:57:17;25.30;55.90
22544;DHT22;11438;52.044;8.716;2023-06-14T11:59:44;25.40;56.20
22544;DHT22;11438;52.044;8.716;2023-06-14T12:02:21;25.40;55.80
22544;DHT22;11438;52.044;8.716;2023-06-14T12:04:47;25.40;55.90
22544;DHT22;11438;52.044;8.716;2023-06-14T12:07:17;25.40;55.10
22544;DHT22;11438;52.044;8.716;2023-06-14T12:12:21;25.60;55.30
22544;DHT22;11438;52.044;8.716;2023-06-14T12:14:47;25.60;55.60
22544;DHT22;11438;52.044;8.716;2023-06-14T12:17:13;25.70;56.30
22544;DHT22;11438;52.044;8.716;2023-06-14T12:19:42;25.80;55.40
22544;DHT22;11438;52.044;8.716;2023-06-14T12:22:15;25.80;54.80
22544;DHT22;11438;52.044;8.716;2023-06-14T12:24:45;25.90;54.50
22544;DHT22;11438;52.044;8.716;2023-06-14T12:27:11;25.90;54.80
22544;DHT22;11438;52.044;8.716;2023-06-14T12:29:41;26.00;56.20
22544;DHT22;11438;52.044;8.716;2023-06-14T12:32:09;26.00;54.00
22544;DHT22;11438;52.044;8.716;2023-06-14T12:34:34;26.10;53.70
22544;DHT22;11438;52.044;8.716;2023-06-14T12:37:01;26.10;54.30
22544;DHT22;11438;52.044;8.716;2023-06-14T12:39:26;26.10;53.70
22544;DHT22;11438;52.044;8.716;2023-06-14T12:41:53;26.20;53.40
22544;DHT22;11438;52.044;8.716;2023-06-14T12:44:18;26.20;53.30
22544;DHT22;11438;52.044;8.716;2023-06-14T12:46:44;26.30;53.50
22544;DHT22;11438;52.044;8.716;2023-06-14T12:49:10;26.20;53.50
22544;DHT22;11438;52.044;8.716;2023-06-14T12:51:36;26.30;53.70
22544;DHT22;11438;52.044;8.716;2023-06-14T12:54:02;26.30;53.30
22544;DHT22;11438;52.044;8.716;2023-06-14T12:56:28;26.40;52.70
22544;DHT22;11438;52.044;8.716;2023-06-14T12:58:53;26.40;53.10
22544;DHT22;11438;52.044;8.716;2023-06-14T13:01:19;26.40;52.50
22544;DHT22;11438;52.044;8.716;2023-06-14T13:03:46;26.50;52.80
22544;DHT22;11438;52.044;8.716;2023-06-14T13:06:12;26.50;53.90
22544;DHT22;11438;52.044;8.716;2023-06-14T13:08:37;26.60;54.20
22544;DHT22;11438;52.044;8.716;2023-06-14T13:11:03;26.60;53.40
22544;DHT22;11438;52.044;8.716;2023-06-14T13:13:28;26.70;53.00
22544;DHT22;11438;52.044;8.716;2023-06-14T13:15:54;26.80;53.50
22544;DHT22;11438;52.044;8.716;2023-06-14T13:18:19;26.90;53.10
22544;DHT22;11438;52.044;8.716;2023-06-14T13:20:46;26.90;52.90
22544;DHT22;11438;52.044;8.716;2023-06-14T13:23:11;27.00;53.00
22544;DHT22;11438;52.044;8.716;2023-06-14T13:25:37;27.00;52.60
22544;DHT22;11438;52.044;8.716;2023-06-14T13:28:04;27.00;51.80
22544;DHT22;11438;52.044;8.716;2023-06-14T13:30:30;27.00;51.70
22544;DHT22;11438;52.044;8.716;2023-06-14T13:32:57;27.00;51.70
22544;DHT22;11438;52.044;8.716;2023-06-14T13:35:23;27.00;52.20
22544;DHT22;11438;52.044;8.716;2023-06-14T13:37:49;27.10;51.50
22544;DHT22;11438;52.044;8.716;2023-06-14T13:40:15;27.10;52.00
22544;DHT22;11438;52.044;8.716;2023-06-14T13:42:41;27.10;51.90
22544;DHT22;11438;52.044;8.716;2023-06-14T13:45:08;27.20;51.40
22544;DHT22;11438;52.044;8.716;2023-06-14T13:47:33;27.30;51.20
22544;DHT22;11438;52.044;8.716;2023-06-14T13:49:59;27.30;51.50
22544;DHT22;11438;52.044;8.716;2023-06-14T13:52:25;27.30;50.80
22544;DHT22;11438;52.044;8.716;2023-06-14T13:54:50;27.40;51.20
22544;DHT22;11438;52.044;8.716;2023-06-14T13:57:17;27.40;50.80
22544;DHT22;11438;52.044;8.716;2023-06-14T13:59:42;27.40;51.10
22544;DHT22;11438;52.044;8.716;2023-06-14T14:02:10;27.40;51.50
22544;DHT22;11438;52.044;8.716;2023-06-14T14:04:35;27.40;51.70
22544;DHT22;11438;52.044;8.716;2023-06-14T14:07:02;27.40;51.60
22544;DHT22;11438;52.044;8.716;2023-06-14T14:09:27;27.40;51.10
22544;DHT22;11438;52.044;8.716;2023-06-14T14:11:53;27.40;51.00
22544;DHT22;11438;52.044;8.716;2023-06-14T14:14:18;27.40;52.00
22544;DHT22;11438;52.044;8.716;2023-06-14T14:16:44;27.50;51.50
22544;DHT22;11438;52.044;8.716;2023-06-14T14:19:09;27.50;50.90
22544;DHT22;11438;52.044;8.716;2023-06-14T14:21:35;27.50;51.10
22544;DHT22;11438;52.044;8.716;2023-06-14T14:24:01;27.40;51.20
22544;DHT22;11438;52.044;8.716;2023-06-14T14:26:26;27.40;51.10
22544;DHT22;11438;52.044;8.716;2023-06-14T14:28:52;27.40;50.30
22544;DHT22;11438;52.044;8.716;2023-06-14T14:31:18;27.40;50.60
22544;DHT22;11438;52.044;8.716;2023-06-14T14:33:43;27.40;51.20
22544;DHT22;11438;52.044;8.716;2023-06-14T14:36:09;27.30;51.20
22544;DHT22;11438;52.044;8.716;2023-06-14T14:38:34;27.30;51.20
22544;DHT22;11438;52.044;8.716;2023-06-14T14:41:00;27.30;50.80
22544;DHT22;11438;52.044;8.716;2023-06-14T14:43:26;27.30;51.70
22544;DHT22;11438;52.044;8.716;2023-06-14T14:45:52;27.30;51.90
22544;DHT22;11438;52.044;8.716;2023-06-14T14:48:18;27.40;51.70
22544;DHT22;11438;52.044;8.716;2023-06-14T14:50:43;27.30;51.70
22544;DHT22;11438;52.044;8.716;2023-06-14T14:53:09;27.30;51.50
22544;DHT22;11438;52.044;8.716;2023-06-14T14:55:34;27.40;51.00
22544;DHT22;11438;52.044;8.716;2023-06-14T14:58:01;27.40;51.00
22544;DHT22;11438;52.044;8.716;2023-06-14T15:00:28;27.30;51.10
22544;DHT22;11438;52.044;8.716;2023-06-14T15:02:53;27.40;51.40
22544;DHT22;11438;52.044;8.716;2023-06-14T15:05:19;27.40;51.30
22544;DHT22;11438;52.044;8.716;2023-06-14T15:07:45;27.40;51.90
22544;DHT22;11438;52.044;8.716;2023-06-14T15:10:11;27.30;51.00
22544;DHT22;11438;52.044;8.716;2023-06-14T15:12:37;27.30;51.00
22544;DHT22;11438;52.044;8.716;2023-06-14T15:15:03;27.30;51.20
22544;DHT22;11438;52.044;8.716;2023-06-14T15:17:29;27.30;51.20
22544;DHT22;11438;52.044;8.716;2023-06-14T15:19:55;27.30;51.40
22544;DHT22;11438;52.044;8.716;2023-06-14T15:22:20;27.30;51.30
22544;DHT22;11438;52.044;8.716;2023-06-14T15:24:46;27.30;51.00
22544;DHT22;11438;52.044;8.716;2023-06-14T15:27:12;27.30;51.80
22544;DHT22;11438;52.044;8.716;2023-06-14T15:29:38;27.30;52.10
22544;DHT22;11438;52.044;8.716;2023-06-14T15:32:05;27.40;51.30
22544;DHT22;11438;52.044;8.716;2023-06-14T15:34:31;27.40;51.00
22544;DHT22;11438;52.044;8.716;2023-06-14T15:36:56;27.40;51.00
22544;DHT22;11438;52.044;8.716;2023-06-14T15:39:22;27.40;51.10
22544;DHT22;11438;52.044;8.716;2023-06-14T15:41:49;27.40;51.20
22544;DHT22;11438;52.044;8.716;2023-06-14T15:44:15;27.40;51.30
22544;DHT22;11438;52.044;8.716;2023-06-14T15:46:40;27.50;51.30